createdAt,value
2018-10-09T00:00:09.977Z,94.04
2018-10-09T00:02:38.622Z,95.31
2018-10-09T00:05:07.512Z,94.45
2018-10-09T00:07:38.949Z,95.34
2018-10-09T00:10:07.645Z,95.29
2018-10-09T00:12:36.281Z,93.90
2018-10-09T00:15:04.933Z,93.34
2018-10-09T00:17:33.458Z,94.33
2018-10-09T00:20:02.240Z,94.27
2018-10-09T00:22:31.020Z,93.72
2018-10-09T00:24:59.555Z,95.35
2018-10-09T00:27:29.141Z,95.56
2018-10-09T00:29:57.741Z,95.10
2018-10-09T00:32:26.247Z,93.64
2018-10-09T00:34:54.724Z,93.69
2018-10-09T00:37:24.322Z,96.63
2018-10-09T00:39:52.916Z,98.19
2018-10-09T00:42:21.666Z,99.02
2018-10-09T00:44:50.182Z,98.09
2018-10-09T00:47:18.806Z,98.59
2018-10-09T00:49:47.465Z,96.55
2018-10-09T00:52:15.970Z,94.60
2018-10-09T00:54:44.610Z,94.22
2018-10-09T00:57:13.205Z,94.96
2018-10-09T00:59:41.931Z,94.50
2018-10-09T01:02:10.633Z,94.56
2018-10-09T01:04:39.371Z,94.26
2018-10-09T01:07:08.037Z,94.96
2018-10-09T01:09:36.539Z,94.83
2018-10-09T01:12:06.155Z,94.49
2018-10-09T01:14:34.713Z,93.14
2018-10-09T01:17:03.606Z,92.58
2018-10-09T01:19:32.214Z,92.76
2018-10-09T01:22:00.819Z,94.18
2018-10-09T01:24:29.320Z,95.62
2018-10-09T01:26:57.962Z,95.71
2018-10-09T01:29:26.642Z,95.97
2018-10-09T01:31:55.305Z,95.75
2018-10-09T01:34:23.849Z,95.55
2018-10-09T01:36:52.690Z,95.65
2018-10-09T01:39:21.357Z,96.83
2018-10-09T01:41:50.001Z,98.57
2018-10-09T01:44:18.621Z,99.36
2018-10-09T01:46:47.153Z,100.00
2018-10-09T01:49:16.927Z,100.00
2018-10-09T01:51:45.869Z,100.00
2018-10-09T01:54:14.598Z,100.00
2018-10-09T01:56:43.269Z,100.00
2018-10-09T01:59:11.820Z,100.00
2018-10-09T02:01:40.617Z,100.00
2018-10-09T02:04:12.013Z,99.02
2018-10-09T02:06:40.674Z,98.07
2018-10-09T02:09:09.973Z,96.50
2018-10-09T02:11:38.647Z,96.21
2018-10-09T02:14:07.348Z,97.28
2018-10-09T02:16:35.893Z,98.56
2018-10-09T02:19:04.389Z,97.61
2018-10-09T02:21:33.006Z,97.45
2018-10-09T02:24:01.783Z,97.83
2018-10-09T02:26:30.398Z,98.69
2018-10-09T02:28:59.839Z,99.53
2018-10-09T02:31:28.335Z,100.00
2018-10-09T02:33:56.873Z,99.61
2018-10-09T02:36:25.432Z,99.28
2018-10-09T02:38:53.898Z,99.64
2018-10-09T02:41:22.670Z,100.00
2018-10-09T02:43:51.182Z,100.00
2018-10-09T02:46:19.811Z,99.40
2018-10-09T02:48:48.442Z,98.43
2018-10-09T02:51:17.052Z,98.73
2018-10-09T02:53:45.648Z,99.41
2018-10-09T02:56:15.059Z,99.94
2018-10-09T02:58:43.622Z,99.69
2018-10-09T03:01:13.154Z,99.74
2018-10-09T03:03:42.278Z,99.49
2018-10-09T03:06:11.008Z,100.00
2018-10-09T03:08:39.531Z,100.00
2018-10-09T03:11:08.266Z,100.00
2018-10-09T03:13:36.849Z,100.00
2018-10-09T03:16:06.582Z,100.00
2018-10-09T03:18:35.267Z,100.00
2018-10-09T03:21:03.837Z,100.00
2018-10-09T03:23:33.342Z,100.00
2018-10-09T03:26:01.974Z,100.00
2018-10-09T03:28:30.521Z,100.00
2018-10-09T03:30:59.070Z,100.00
2018-10-09T03:33:27.542Z,98.26
2018-10-09T03:35:56.116Z,97.53
2018-10-09T03:38:24.761Z,96.75
2018-10-09T03:40:53.502Z,96.14
2018-10-09T03:43:22.005Z,95.66
2018-10-09T03:45:50.649Z,95.14
2018-10-09T03:48:19.421Z,94.50
2018-10-09T03:50:47.966Z,93.74
2018-10-09T03:53:16.630Z,93.54
2018-10-09T03:55:45.243Z,93.95
2018-10-09T03:58:14.717Z,95.16
2018-10-09T04:00:43.297Z,96.81
2018-10-09T04:03:11.990Z,97.54
2018-10-09T04:05:40.705Z,97.39
2018-10-09T04:08:09.310Z,99.05
2018-10-09T04:10:37.929Z,100.00
2018-10-09T04:13:06.671Z,100.00
2018-10-09T04:15:35.224Z,100.00
2018-10-09T04:18:03.861Z,100.00
2018-10-09T04:20:32.515Z,100.00
2018-10-09T04:23:01.198Z,100.00
2018-10-09T04:25:30.280Z,100.00
2018-10-09T04:27:58.893Z,100.00
2018-10-09T04:30:27.462Z,100.00
2018-10-09T04:32:56.157Z,100.00
2018-10-09T04:35:25.044Z,100.00
2018-10-09T04:37:53.549Z,100.00
2018-10-09T04:40:22.191Z,100.00
2018-10-09T04:42:50.710Z,100.00
2018-10-09T04:45:20.201Z,100.00
2018-10-09T04:47:48.870Z,99.78
2018-10-09T04:50:17.677Z,99.00
2018-10-09T04:52:46.240Z,100.00
2018-10-09T04:55:14.776Z,100.00
2018-10-09T04:57:44.402Z,100.00
2018-10-09T05:00:12.886Z,100.00
2018-10-09T05:02:41.495Z,100.00
2018-10-09T05:05:10.070Z,100.00
2018-10-09T05:07:38.681Z,100.00
2018-10-09T05:10:08.993Z,100.00
2018-10-09T05:12:38.025Z,100.00
2018-10-09T05:15:07.318Z,100.00
2018-10-09T05:17:36.204Z,100.00
2018-10-09T05:20:06.642Z,100.00
2018-10-09T05:22:35.147Z,100.00
2018-10-09T05:25:03.657Z,100.00
2018-10-09T05:27:32.566Z,100.00
2018-10-09T05:30:01.165Z,100.00
2018-10-09T05:32:29.618Z,100.00
2018-10-09T05:34:58.372Z,100.00
2018-10-09T05:37:26.893Z,100.00
2018-10-09T05:39:56.226Z,100.00
2018-10-09T05:42:24.819Z,100.00
2018-10-09T05:44:53.408Z,100.00
2018-10-09T05:47:21.962Z,100.00
2018-10-09T05:49:50.757Z,100.00
2018-10-09T05:52:19.330Z,100.00
2018-10-09T05:54:47.819Z,100.00
2018-10-09T05:57:16.417Z,100.00
2018-10-09T05:59:45.056Z,100.00
2018-10-09T06:02:13.645Z,100.00
2018-10-09T06:04:42.149Z,100.00
2018-10-09T06:07:10.878Z,100.00
2018-10-09T06:09:41.530Z,100.00
2018-10-09T06:12:10.234Z,100.00
2018-10-09T06:14:38.747Z,100.00
2018-10-09T06:17:07.350Z,100.00
2018-10-09T06:19:36.044Z,100.00
2018-10-09T06:22:04.723Z,100.00
2018-10-09T06:24:33.498Z,100.00
2018-10-09T06:27:02.112Z,100.00
2018-10-09T06:29:30.722Z,100.00
2018-10-09T06:31:59.941Z,100.00
2018-10-09T06:34:28.546Z,100.00
2018-10-09T06:36:57.134Z,100.00
2018-10-09T06:39:26.853Z,100.00
2018-10-09T06:41:55.371Z,100.00
2018-10-09T06:44:23.921Z,100.00
2018-10-09T06:46:52.512Z,100.00
2018-10-09T06:49:21.267Z,100.00
2018-10-09T06:51:50.065Z,100.00
2018-10-09T06:54:18.866Z,100.00
2018-10-09T06:56:47.367Z,100.00
2018-10-09T06:59:15.991Z,100.00
2018-10-09T07:01:45.265Z,100.00
2018-10-09T07:04:14.281Z,100.00
2018-10-09T07:06:42.826Z,100.00
2018-10-09T07:09:12.285Z,100.00
2018-10-09T07:11:40.879Z,100.00
2018-10-09T07:14:09.469Z,99.91
2018-10-09T07:16:38.181Z,99.91
2018-10-09T07:19:06.776Z,99.45
2018-10-09T07:21:35.250Z,99.23
2018-10-09T07:24:03.889Z,99.22
2018-10-09T07:26:33.602Z,98.94
2018-10-09T07:29:02.190Z,99.29
2018-10-09T07:31:30.813Z,98.47
2018-10-09T07:33:59.434Z,99.53
2018-10-09T07:36:27.942Z,99.19
2018-10-09T07:38:56.571Z,98.60
2018-10-09T07:41:25.145Z,98.03
2018-10-09T07:43:53.874Z,97.87
2018-10-09T07:46:22.498Z,98.25
2018-10-09T07:48:51.065Z,98.37
2018-10-09T07:51:19.917Z,97.98
2018-10-09T07:53:48.408Z,96.96
2018-10-09T07:56:17.194Z,96.56
2018-10-09T07:58:45.782Z,96.27
2018-10-09T08:01:14.350Z,95.71
2018-10-09T08:03:42.906Z,95.36
2018-10-09T08:06:11.534Z,95.07
2018-10-09T08:08:40.419Z,94.64
2018-10-09T08:11:08.997Z,94.66
2018-10-09T08:13:37.534Z,95.01
2018-10-09T08:16:06.099Z,95.05
2018-10-09T08:18:34.740Z,94.59
2018-10-09T08:21:03.391Z,94.32
2018-10-09T08:23:32.145Z,94.09
2018-10-09T08:26:00.669Z,93.86
2018-10-09T08:28:29.583Z,94.56
2018-10-09T08:30:58.649Z,94.25
2018-10-09T08:33:27.354Z,93.22
2018-10-09T08:35:56.008Z,93.42
2018-10-09T08:38:24.609Z,92.23
2018-10-09T08:40:53.153Z,93.21
2018-10-09T08:43:21.627Z,92.62
2018-10-09T08:45:50.075Z,90.61
2018-10-09T08:48:18.744Z,90.73
2018-10-09T08:50:47.339Z,89.53
2018-10-09T08:53:16.040Z,89.21
2018-10-09T08:55:44.760Z,88.59
2018-10-09T08:58:13.311Z,89.21
2018-10-09T09:00:41.849Z,87.54
2018-10-09T09:03:10.369Z,88.29
2018-10-09T09:05:38.885Z,87.30
2018-10-09T09:08:07.445Z,84.61
2018-10-09T09:10:36.141Z,84.64
2018-10-09T09:13:04.687Z,83.42
2018-10-09T09:15:33.239Z,83.26
2018-10-09T09:18:05.083Z,82.71
2018-10-09T09:20:33.826Z,82.45
2018-10-09T09:23:02.386Z,82.66
2018-10-09T09:25:30.937Z,80.97
2018-10-09T09:27:59.529Z,80.21
2018-10-09T09:30:28.250Z,80.44
2018-10-09T09:32:56.842Z,79.68
2018-10-09T09:35:25.472Z,79.60
2018-10-09T09:37:54.185Z,79.06
2018-10-09T09:40:22.785Z,78.71
2018-10-09T09:42:51.335Z,78.44
2018-10-09T09:45:19.849Z,78.06
2018-10-09T09:47:48.381Z,77.84
2018-10-09T09:50:17.040Z,78.14
2018-10-09T09:52:45.618Z,77.01
2018-10-09T09:55:14.312Z,76.66
2018-10-09T09:57:42.912Z,76.72
2018-10-09T10:00:16.627Z,75.60
2018-10-09T10:02:45.201Z,74.87
2018-10-09T10:05:13.765Z,73.82
2018-10-09T10:07:42.470Z,75.12
2018-10-09T10:10:11.050Z,73.60
2018-10-09T10:12:39.679Z,72.38
2018-10-09T10:15:08.471Z,72.37
2018-10-09T10:17:37.042Z,71.01
2018-10-09T10:20:05.619Z,70.46
2018-10-09T10:22:34.375Z,70.36
2018-10-09T10:25:03.074Z,69.79
2018-10-09T10:27:32.993Z,68.46
2018-10-09T10:30:01.749Z,67.41
2018-10-09T10:32:30.370Z,67.54
2018-10-09T10:34:59.097Z,67.05
2018-10-09T10:37:27.679Z,66.03
2018-10-09T10:39:57.053Z,65.53
2018-10-09T10:42:25.842Z,66.04
2018-10-09T10:44:54.373Z,65.25
2018-10-09T10:47:22.937Z,65.12
2018-10-09T10:49:51.547Z,63.51
2018-10-09T10:52:20.372Z,62.77
2018-10-09T10:54:48.940Z,62.07
2018-10-09T10:57:17.509Z,61.52
2018-10-09T10:59:46.090Z,62.27
2018-10-09T11:02:14.570Z,60.37
2018-10-09T11:04:43.166Z,59.91
2018-10-09T11:07:11.868Z,59.80
2018-10-09T11:09:40.559Z,59.06
2018-10-09T11:12:09.142Z,58.10
2018-10-09T11:14:38.817Z,56.36
2018-10-09T11:17:07.407Z,53.90
2018-10-09T11:19:36.261Z,53.19
2018-10-09T11:22:04.821Z,51.05
2018-10-09T11:24:33.361Z,50.19
2018-10-09T11:27:01.862Z,50.60
2018-10-09T11:29:30.482Z,46.96
2018-10-09T11:31:59.315Z,45.82
2018-10-09T11:34:27.895Z,45.13
2018-10-09T11:36:56.403Z,44.46
2018-10-09T11:39:24.927Z,43.92
2018-10-09T11:41:53.842Z,40.91
2018-10-09T11:44:22.595Z,39.99
2018-10-09T11:46:51.215Z,40.58
2018-10-09T11:49:19.877Z,38.53
2018-10-09T11:51:48.525Z,38.71
2018-10-09T11:54:17.042Z,38.85
2018-10-09T11:56:45.922Z,37.50
2018-10-09T11:59:14.453Z,38.78
2018-10-09T12:01:43.034Z,38.24
2018-10-09T12:04:11.740Z,36.17
2018-10-09T12:06:40.483Z,36.56
2018-10-09T12:09:11.669Z,35.13
2018-10-09T12:11:41.119Z,36.48
2018-10-09T12:14:10.210Z,38.17
2018-10-09T12:16:38.721Z,37.23
2018-10-09T12:19:07.410Z,37.45
2018-10-09T12:21:36.604Z,37.45
2018-10-09T12:24:05.015Z,35.32
2018-10-09T12:26:33.872Z,35.25
2018-10-09T12:29:02.499Z,33.94
2018-10-09T12:31:31.179Z,33.06
2018-10-09T12:34:00.310Z,33.33
2018-10-09T12:36:28.913Z,33.32
2018-10-09T12:38:57.408Z,31.34
2018-10-09T12:41:25.982Z,32.51
2018-10-09T12:43:54.681Z,32.61
2018-10-09T12:46:23.562Z,34.58
2018-10-09T12:48:53.226Z,35.11
2018-10-09T12:51:21.740Z,35.90
2018-10-09T12:53:50.437Z,37.03
2018-10-09T12:56:19.064Z,38.08
2018-10-09T12:58:47.765Z,38.15
2018-10-09T13:01:16.294Z,38.73
2018-10-09T13:03:44.855Z,39.93
2018-10-09T13:06:14.095Z,39.79
2018-10-09T13:08:42.704Z,39.85
2018-10-09T13:11:11.476Z,37.88
2018-10-09T13:13:40.460Z,37.38
2018-10-09T13:16:09.090Z,37.19
2018-10-09T13:18:37.849Z,37.27
2018-10-09T13:21:07.043Z,37.29
2018-10-09T13:23:35.835Z,36.84
2018-10-09T13:26:04.415Z,36.10
2018-10-09T13:28:33.108Z,37.51
2018-10-09T13:31:01.764Z,37.84
2018-10-09T13:33:30.333Z,38.23
2018-10-09T13:35:58.949Z,37.41
2018-10-09T13:38:28.531Z,37.50
2018-10-09T13:40:57.386Z,38.87
2018-10-09T13:43:26.221Z,38.65
2018-10-09T13:45:54.794Z,38.70
2018-10-09T13:48:23.412Z,39.24
2018-10-09T13:50:52.090Z,37.50
2018-10-09T13:53:20.702Z,37.69
2018-10-09T13:55:49.285Z,37.66
2018-10-09T13:58:18.002Z,37.79
2018-10-09T14:00:46.625Z,37.45
2018-10-09T14:03:15.451Z,36.50
2018-10-09T14:05:44.033Z,37.31
2018-10-09T14:08:12.659Z,37.93
2018-10-09T14:10:42.484Z,38.38
2018-10-09T14:13:11.138Z,37.62
2018-10-09T14:15:39.930Z,36.94
2018-10-09T14:18:08.443Z,36.45
2018-10-09T14:20:37.017Z,38.49
2018-10-09T14:23:05.750Z,38.26
2018-10-09T14:25:34.255Z,38.98
2018-10-09T14:28:03.078Z,38.95
2018-10-09T14:30:32.616Z,38.77
2018-10-09T14:33:01.218Z,38.75
2018-10-09T14:35:29.814Z,38.89
2018-10-09T14:37:58.436Z,38.92
2018-10-09T14:40:27.046Z,37.65
2018-10-09T14:42:56.203Z,37.46
2018-10-09T14:45:25.762Z,37.73
2018-10-09T14:47:54.403Z,38.32
2018-10-09T14:50:22.997Z,39.75
2018-10-09T14:52:51.726Z,40.35
2018-10-09T14:55:20.318Z,40.72
2018-10-09T14:57:49.125Z,42.27
2018-10-09T15:00:17.705Z,42.81
2018-10-09T15:02:46.241Z,42.72
2018-10-09T15:05:14.838Z,43.29
2018-10-09T15:07:43.525Z,43.72
2018-10-09T15:10:12.325Z,44.44
2018-10-09T15:12:40.856Z,44.98
2018-10-09T15:15:09.562Z,45.30
2018-10-09T15:17:38.162Z,46.32
2018-10-09T15:20:08.536Z,47.42
2018-10-09T15:22:37.104Z,48.49
2018-10-09T15:25:05.716Z,49.84
2018-10-09T15:27:34.247Z,50.57
2018-10-09T15:30:02.843Z,52.04
2018-10-09T15:32:31.572Z,52.43
2018-10-09T15:35:00.212Z,53.45
2018-10-09T15:37:28.773Z,53.25
2018-10-09T15:39:57.494Z,54.27
2018-10-09T15:42:26.118Z,55.23
2018-10-09T15:44:54.845Z,55.65
2018-10-09T15:47:23.496Z,55.86
2018-10-09T15:49:52.166Z,56.59
2018-10-09T15:52:20.763Z,57.91
2018-10-09T15:54:49.304Z,58.39
2018-10-09T15:57:17.801Z,57.69
2018-10-09T15:59:47.486Z,58.69
2018-10-09T16:02:16.013Z,59.60
2018-10-09T16:04:44.630Z,61.07
2018-10-09T16:07:13.231Z,63.08
2018-10-09T16:09:41.874Z,62.89
2018-10-09T16:12:11.521Z,64.22
2018-10-09T16:14:40.053Z,65.58
2018-10-09T16:17:08.627Z,66.21
2018-10-09T16:19:37.278Z,66.80
2018-10-09T16:22:05.987Z,68.36
2018-10-09T16:24:34.562Z,67.68
2018-10-09T16:27:03.184Z,67.96
2018-10-09T16:29:31.674Z,68.67
2018-10-09T16:32:00.757Z,69.25
2018-10-09T16:34:29.334Z,69.76
2018-10-09T16:36:57.927Z,71.60
2018-10-09T16:39:27.217Z,71.79
2018-10-09T16:41:57.714Z,73.41
2018-10-09T16:44:26.187Z,74.62
2018-10-09T16:46:54.713Z,76.02
2018-10-09T16:49:23.323Z,76.22
2018-10-09T16:51:52.003Z,76.69
2018-10-09T16:54:20.600Z,77.30
2018-10-09T16:56:49.127Z,77.51
2018-10-09T16:59:17.615Z,76.62
2018-10-09T17:01:47.174Z,77.42
2018-10-09T17:04:15.863Z,78.70
2018-10-09T17:06:44.715Z,78.36
2018-10-09T17:09:13.394Z,78.92
2018-10-09T17:11:42.559Z,80.34
2018-10-09T17:14:11.714Z,80.71
2018-10-09T17:16:40.376Z,80.37
2018-10-09T17:19:09.132Z,78.73
2018-10-09T17:21:37.839Z,78.26
2018-10-09T17:24:06.537Z,79.04
2018-10-09T17:26:35.251Z,81.08
2018-10-09T17:29:03.899Z,83.05
2018-10-09T17:31:32.486Z,84.24
2018-10-09T17:34:01.118Z,84.15
2018-10-09T17:36:29.634Z,83.09
2018-10-09T17:38:58.445Z,82.85
2018-10-09T17:41:26.982Z,82.84
2018-10-09T17:43:55.516Z,81.19
2018-10-09T17:46:24.196Z,82.06
2018-10-09T17:48:52.697Z,84.57
2018-10-09T17:51:21.217Z,86.96
2018-10-09T17:53:49.872Z,88.79
2018-10-09T17:56:18.321Z,88.37
2018-10-09T17:58:46.931Z,87.91
2018-10-09T18:01:15.634Z,88.07
2018-10-09T18:03:46.202Z,89.01
2018-10-09T18:06:14.863Z,89.04
2018-10-09T18:08:43.727Z,89.27
2018-10-09T18:11:12.553Z,90.24
2018-10-09T18:13:41.333Z,90.82
2018-10-09T18:16:10.071Z,91.02
2018-10-09T18:18:41.990Z,91.02
2018-10-09T18:21:10.709Z,91.32
2018-10-09T18:23:40.522Z,91.87
2018-10-09T18:26:09.684Z,92.30
2018-10-09T18:28:38.359Z,91.91
2018-10-09T18:31:06.862Z,92.51
2018-10-09T18:33:35.569Z,92.57
2018-10-09T18:36:04.231Z,91.86
2018-10-09T18:38:33.020Z,91.87
2018-10-09T18:41:01.723Z,91.79
2018-10-09T18:43:30.227Z,92.40
2018-10-09T18:45:58.939Z,92.45
2018-10-09T18:48:27.621Z,92.14
2018-10-09T18:50:57.239Z,92.61
2018-10-09T18:53:25.922Z,93.27
2018-10-09T18:55:54.646Z,93.17
2018-10-09T18:58:23.129Z,92.12
2018-10-09T19:00:51.787Z,89.91
2018-10-09T19:05:55.425Z,89.51
2018-10-09T19:08:24.023Z,88.86
2018-10-09T19:10:52.916Z,88.18
2018-10-09T19:13:21.496Z,88.32
2018-10-09T19:15:49.970Z,88.75
2018-10-09T19:18:18.555Z,86.72
2018-10-09T19:20:47.356Z,87.15
2018-10-09T19:23:15.926Z,86.60
2018-10-09T19:25:44.577Z,86.32
2018-10-09T19:28:13.283Z,87.98
2018-10-09T19:30:41.865Z,87.90
2018-10-09T19:33:10.453Z,88.15
2018-10-09T19:35:39.225Z,87.93
2018-10-09T19:38:08.007Z,89.57
2018-10-09T19:40:36.665Z,90.67
2018-10-09T19:43:05.377Z,91.01
2018-10-09T19:45:34.038Z,89.39
2018-10-09T19:48:02.877Z,90.06
2018-10-09T19:50:31.585Z,92.54
2018-10-09T19:53:00.399Z,93.96
2018-10-09T19:55:29.152Z,94.08
2018-10-09T19:57:57.910Z,93.68
2018-10-09T20:00:26.685Z,94.88
2018-10-09T20:02:55.405Z,94.96
2018-10-09T20:05:23.982Z,95.49
2018-10-09T20:07:52.640Z,95.75
2018-10-09T20:10:22.307Z,94.65
2018-10-09T20:12:51.658Z,94.80
2018-10-09T20:15:20.421Z,95.34
2018-10-09T20:17:49.074Z,95.85
2018-10-09T20:20:17.622Z,96.59
2018-10-09T20:22:46.442Z,96.78
2018-10-09T20:25:15.004Z,96.03
2018-10-09T20:27:43.637Z,94.37
2018-10-09T20:30:12.843Z,94.65
2018-10-09T20:32:41.403Z,95.24
2018-10-09T20:35:10.188Z,95.11
2018-10-09T20:37:39.061Z,95.13
2018-10-09T20:40:08.646Z,96.54
2018-10-09T20:42:37.355Z,96.39
2018-10-09T20:45:06.225Z,96.63
2018-10-09T20:47:39.816Z,97.27
2018-10-09T20:50:08.383Z,97.57
2018-10-09T20:52:38.208Z,96.97
2018-10-09T20:55:06.907Z,94.91
2018-10-09T20:57:35.487Z,94.03
2018-10-09T21:00:04.728Z,93.93
2018-10-09T21:02:33.722Z,95.25
2018-10-09T21:05:02.288Z,94.94
2018-10-09T21:07:30.874Z,96.27
2018-10-09T21:09:59.434Z,94.04
2018-10-09T21:12:28.082Z,91.47
2018-10-09T21:14:56.780Z,92.80
2018-10-09T21:17:25.351Z,94.78
2018-10-09T21:19:54.005Z,97.23
2018-10-09T21:22:23.406Z,98.89
2018-10-09T21:24:51.991Z,100.00
2018-10-09T21:27:20.570Z,99.77
2018-10-09T21:29:49.233Z,100.00
2018-10-09T21:32:17.760Z,100.00
2018-10-09T21:34:46.590Z,100.00
2018-10-09T21:37:15.114Z,100.00
2018-10-09T21:39:43.797Z,99.97
2018-10-09T21:42:12.590Z,97.17
2018-10-09T21:44:41.070Z,94.98
2018-10-09T21:47:09.693Z,94.97
2018-10-09T21:49:38.490Z,92.84
2018-10-09T21:52:07.186Z,93.65
2018-10-09T21:54:35.714Z,93.19
2018-10-09T21:57:04.206Z,95.61
2018-10-09T21:59:32.741Z,97.63
2018-10-09T22:02:02.297Z,98.03
2018-10-09T22:04:30.975Z,97.92
2018-10-09T22:06:59.527Z,98.72
2018-10-09T22:09:28.050Z,99.21
2018-10-09T22:11:56.684Z,98.32
2018-10-09T22:14:26.333Z,99.18
2018-10-09T22:16:55.088Z,100.00
2018-10-09T22:19:23.844Z,100.00
2018-10-09T22:21:52.681Z,100.00
2018-10-09T22:24:21.297Z,98.52
2018-10-09T22:26:51.020Z,95.17
2018-10-09T22:29:22.117Z,94.10
2018-10-09T22:31:51.852Z,93.47
2018-10-09T22:34:20.799Z,96.10
2018-10-09T22:36:49.514Z,98.56
2018-10-09T22:39:18.088Z,99.40
2018-10-09T22:41:46.606Z,100.00
2018-10-09T22:44:15.311Z,100.00
2018-10-09T22:46:43.884Z,100.00
2018-10-09T22:49:12.491Z,98.74
2018-10-09T22:51:41.137Z,100.00
2018-10-09T22:54:09.732Z,100.00
2018-10-09T22:56:38.343Z,100.00
2018-10-09T22:59:07.029Z,100.00
2018-10-09T23:01:35.699Z,100.00
2018-10-09T23:04:04.317Z,98.69
2018-10-09T23:06:32.850Z,96.79
2018-10-09T23:09:01.605Z,96.44
2018-10-09T23:11:30.125Z,97.95
2018-10-09T23:13:58.740Z,97.16
2018-10-09T23:16:27.332Z,97.18
2018-10-09T23:18:56.020Z,96.11
2018-10-09T23:21:24.533Z,95.34
2018-10-09T23:23:53.134Z,95.81
2018-10-09T23:26:21.712Z,95.64
2018-10-09T23:28:51.337Z,95.77
2018-10-09T23:31:21.014Z,97.38
2018-10-09T23:33:49.569Z,98.95
2018-10-09T23:36:19.281Z,99.83
2018-10-09T23:38:47.809Z,100.00
2018-10-09T23:41:16.365Z,100.00
2018-10-09T23:43:45.888Z,100.00
2018-10-09T23:46:14.570Z,100.00
2018-10-09T23:48:43.196Z,100.00
2018-10-09T23:51:11.773Z,100.00
2018-10-09T23:53:41.397Z,100.00
2018-10-09T23:56:09.958Z,100.00
2018-10-09T23:58:38.604Z,100.00
